createdAt,value
2023-03-11T00:00:13.523Z,99387.31
2023-03-11T00:04:15.127Z,99394.06
2023-03-11T00:08:19.777Z,99410.13
2023-03-11T00:12:22.031Z,99415.66
2023-03-11T00:16:23.622Z,99418.88
2023-03-11T00:20:29.250Z,99425.50
2023-03-11T00:24:30.880Z,99425.50
2023-03-11T00:28:52.731Z,99438.16
2023-03-11T00:33:15.813Z,99437.28
2023-03-11T00:37:37.263Z,99447.03
2023-03-11T00:41:39.127Z,99453.00
2023-03-11T00:45:41.301Z,99468.00
2023-03-11T00:49:43.113Z,99473.41
2023-03-11T00:53:45.026Z,99475.19
2023-03-11T00:57:46.994Z,99494.44
2023-03-11T01:01:48.940Z,99489.84
2023-03-11T01:05:50.558Z,99498.84
2023-03-11T01:09:52.196Z,99506.53
2023-03-11T01:13:53.703Z,99516.25
2023-03-11T01:17:56.577Z,99516.25
2023-03-11T01:21:58.302Z,99530.19
2023-03-11T01:25:59.996Z,99533.50
2023-03-11T01:30:02.341Z,99546.63
2023-03-11T01:34:04.198Z,99548.38
2023-03-11T01:38:05.778Z,99554.53
2023-03-11T01:42:27.134Z,99561.41
2023-03-11T01:46:51.638Z,99573.94
2023-03-11T01:50:56.630Z,99573.03
2023-03-11T01:54:58.399Z,99584.44
2023-03-11T01:59:00.430Z,99586.25
2023-03-11T02:03:09.274Z,99595.78
2023-03-11T02:07:12.374Z,99609.03
2023-03-11T02:11:26.262Z,99606.28
2023-03-11T02:15:28.473Z,99609.81
2023-03-11T02:19:35.008Z,99621.84
2023-03-11T02:23:50.794Z,99628.97
2023-03-11T02:27:55.287Z,99633.44
2023-03-11T02:32:04.772Z,99643.88
2023-03-11T02:36:07.387Z,99648.38
2023-03-11T02:40:38.354Z,99664.09
2023-03-11T02:44:44.140Z,99685.22
2023-03-11T02:48:47.449Z,99686.88
2023-03-11T02:52:49.999Z,99696.53
2023-03-11T02:56:51.706Z,99700.13
2023-03-11T03:00:53.836Z,99715.09
2023-03-11T03:04:55.634Z,99729.97
2023-03-11T03:08:57.510Z,99747.53
2023-03-11T03:12:59.929Z,99762.38
2023-03-11T03:17:02.041Z,99758.84
2023-03-11T03:21:04.424Z,99757.06
2023-03-11T03:25:07.013Z,99764.91
2023-03-11T03:29:08.673Z,99765.84
2023-03-11T03:33:10.702Z,99775.50
2023-03-11T03:37:12.655Z,99787.75
2023-03-11T03:41:18.249Z,99806.16
2023-03-11T03:45:20.121Z,99800.06
2023-03-11T03:49:23.510Z,99821.06
2023-03-11T03:53:46.578Z,99818.47
2023-03-11T03:58:08.907Z,99818.47
2023-03-11T04:02:31.509Z,99837.72
2023-03-11T04:06:53.428Z,99829.88
2023-03-11T04:11:15.157Z,99827.22
2023-03-11T04:15:39.552Z,99841.22
2023-03-11T04:20:01.739Z,99837.75
2023-03-11T04:24:24.159Z,99838.59
2023-03-11T04:28:46.161Z,99848.19
2023-03-11T04:32:49.514Z,99855.13
2023-03-11T04:36:55.289Z,99866.50
2023-03-11T04:41:04.351Z,99876.19
2023-03-11T04:45:07.217Z,99888.47
2023-03-11T04:49:09.840Z,99904.19
2023-03-11T04:53:12.076Z,99909.47
2023-03-11T04:57:14.011Z,99920.84
2023-03-11T05:01:18.688Z,99926.97
2023-03-11T05:05:20.671Z,99920.84
2023-03-11T05:09:22.679Z,99926.97
2023-03-11T05:13:24.464Z,99934.84
2023-03-11T05:17:27.535Z,99947.97
2023-03-11T05:21:29.955Z,99939.16
2023-03-11T05:25:32.237Z,99942.63
2023-03-11T05:29:54.041Z,99954.97
2023-03-11T05:34:17.604Z,99955.84
2023-03-11T05:38:40.028Z,99954.13
2023-03-11T05:43:02.296Z,99966.34
2023-03-11T05:47:27.003Z,99961.91
2023-03-11T05:51:44.544Z,99964.56
2023-03-11T05:55:56.124Z,99975.06
2023-03-11T05:59:58.194Z,99979.41
2023-03-11T06:04:00.432Z,99997.81
2023-03-11T06:08:02.509Z,99999.53
2023-03-11T06:12:05.032Z,100010.03
2023-03-11T06:16:21.362Z,100021.50
2023-03-11T06:20:23.122Z,100019.63
2023-03-11T06:24:25.893Z,100026.38
2023-03-11T06:28:28.774Z,100025.44
2023-03-11T06:32:31.034Z,100028.22
2023-03-11T06:36:33.162Z,100035.09
2023-03-11T06:40:34.716Z,100043.81
2023-03-11T06:44:36.759Z,100042.91
2023-03-11T06:48:38.670Z,100068.31
2023-03-11T06:52:40.394Z,100076.34
2023-03-11T06:56:42.949Z,100086.94
2023-03-11T07:00:44.700Z,100087.28
2023-03-11T07:04:49.528Z,100093.78
2023-03-11T07:08:53.757Z,100093.78
2023-03-11T07:12:55.198Z,100099.84
2023-03-11T07:16:58.213Z,100106.72
2023-03-11T07:21:08.077Z,100125.63
2023-03-11T07:25:09.830Z,100129.94
2023-03-11T07:29:11.232Z,100143.44
2023-03-11T07:33:13.276Z,100144.44
2023-03-11T07:37:15.392Z,100158.38
2023-03-11T07:41:16.926Z,100164.75
2023-03-11T07:45:18.442Z,100170.81
2023-03-11T07:49:20.054Z,100181.78
2023-03-11T07:53:21.541Z,100180.50
2023-03-11T07:57:22.992Z,100186.00
2023-03-11T08:01:27.094Z,100199.81
2023-03-11T08:05:28.534Z,100210.44
2023-03-11T08:09:29.995Z,100218.25
2023-03-11T08:13:31.448Z,100212.75
2023-03-11T08:17:33.071Z,100218.75
2023-03-11T08:21:34.502Z,100221.41
2023-03-11T08:25:38.801Z,100222.09
2023-03-11T08:29:40.211Z,100233.00
2023-03-11T08:33:44.053Z,100243.69
2023-03-11T08:37:45.621Z,100234.56
2023-03-11T08:41:47.069Z,100261.25
2023-03-11T08:45:48.596Z,100255.91
2023-03-11T08:49:50.096Z,100269.09
2023-03-11T08:53:52.403Z,100270.63
2023-03-11T08:57:54.321Z,100278.66
2023-03-11T09:01:55.760Z,100283.25
2023-03-11T09:06:01.722Z,100292.03
2023-03-11T09:10:04.216Z,100292.91
2023-03-11T09:14:05.880Z,100291.94
2023-03-11T09:18:09.065Z,100286.06
2023-03-11T09:22:10.604Z,100293.72
2023-03-11T09:26:12.698Z,100306.69
2023-03-11T09:30:14.297Z,100306.97
2023-03-11T09:34:16.328Z,100309.56
2023-03-11T09:38:17.837Z,100318.31
2023-03-11T09:42:35.324Z,100313.75
2023-03-11T09:46:39.576Z,100315.19
2023-03-11T09:50:48.697Z,100327.84
2023-03-11T09:54:55.569Z,100343.44
2023-03-11T09:59:04.754Z,100339.19
2023-03-11T10:03:17.603Z,100341.00
2023-03-11T10:07:25.905Z,100351.28
2023-03-11T10:11:44.746Z,100353.09
2023-03-11T10:15:56.475Z,100362.03
2023-03-11T10:20:47.622Z,100360.28
2023-03-11T10:25:01.068Z,100378.94
2023-03-11T10:29:16.588Z,100378.06
2023-03-11T10:33:28.800Z,100375.25
2023-03-11T10:37:48.384Z,100385.84
2023-03-11T10:42:10.744Z,100388.78
2023-03-11T10:46:23.061Z,100386.78
2023-03-11T10:50:24.711Z,100398.00
2023-03-11T10:54:35.945Z,100390.91
2023-03-11T10:58:47.809Z,100402.44
2023-03-11T11:02:59.931Z,100409.28
2023-03-11T11:07:26.530Z,100408.00
2023-03-11T11:11:27.950Z,100420.97
2023-03-11T11:15:33.901Z,100426.00
2023-03-11T11:19:36.049Z,100415.22
2023-03-11T11:23:42.501Z,100432.25
2023-03-11T11:27:55.980Z,100443.13
2023-03-11T11:32:15.536Z,100435.00
2023-03-11T11:36:18.468Z,100441.97
2023-03-11T11:40:30.459Z,100439.44
2023-03-11T11:44:34.742Z,100438.44
2023-03-11T11:48:49.386Z,100444.50
2023-03-11T11:53:04.586Z,100443.78
2023-03-11T11:57:14.902Z,100450.75
2023-03-11T12:02:05.003Z,100448.22
2023-03-11T12:06:28.301Z,100445.47
2023-03-11T12:10:32.498Z,100440.84
2023-03-11T12:14:43.582Z,100448.97
2023-03-11T12:18:51.456Z,100444.75
2023-03-11T12:23:34.744Z,100447.44
2023-03-11T12:27:51.597Z,100450.13
2023-03-11T12:31:55.075Z,100454.38
2023-03-11T12:35:58.671Z,100454.38
2023-03-11T12:40:00.290Z,100450.88
2023-03-11T12:44:04.788Z,100453.41
2023-03-11T12:48:32.751Z,100448.75
2023-03-11T12:52:52.601Z,100441.97
2023-03-11T12:57:01.209Z,100447.00
2023-03-11T13:01:33.225Z,100437.03
2023-03-11T13:06:09.751Z,100444.28
2023-03-11T13:10:15.867Z,100440.97
2023-03-11T13:14:31.496Z,100458.38
2023-03-11T13:18:33.216Z,100445.19
2023-03-11T13:22:51.816Z,100451.53
2023-03-11T13:27:04.901Z,100449.75
2023-03-11T13:31:34.425Z,100452.44
2023-03-11T13:35:51.670Z,100450.63
2023-03-11T13:40:31.652Z,100440.59
2023-03-11T13:44:40.075Z,100454.59
2023-03-11T13:48:46.376Z,100457.84
2023-03-11T13:52:50.321Z,100454.28
2023-03-11T13:56:56.982Z,100452.47
2023-03-11T14:01:00.849Z,100454.03
2023-03-11T14:05:07.060Z,100458.09
2023-03-11T14:09:19.409Z,100443.09
2023-03-11T14:13:22.211Z,100453.25
2023-03-11T14:17:23.634Z,100454.69
2023-03-11T14:21:25.124Z,100461.19
2023-03-11T14:25:31.007Z,100450.63
2023-03-11T14:29:40.415Z,100454.56
2023-03-11T14:33:41.795Z,100454.41
2023-03-11T14:37:43.224Z,100446.50
2023-03-11T14:41:44.813Z,100449.00
2023-03-11T14:45:48.768Z,100452.56
2023-03-11T14:49:51.943Z,100453.59
2023-03-11T14:54:25.425Z,100441.50
2023-03-11T14:58:34.652Z,100443.25
2023-03-11T15:02:48.529Z,100439.84
2023-03-11T15:06:50.623Z,100435.69
2023-03-11T15:11:12.459Z,100442.03
2023-03-11T15:15:24.715Z,100423.63
2023-03-11T15:19:28.933Z,100422.47
2023-03-11T15:23:30.614Z,100431.44
2023-03-11T15:27:37.278Z,100421.88
2023-03-11T15:31:40.217Z,100420.78
2023-03-11T15:35:49.556Z,100426.03
2023-03-11T15:39:52.221Z,100423.91
2023-03-11T15:43:54.780Z,100420.75
2023-03-11T15:47:56.225Z,100427.50
2023-03-11T15:52:02.140Z,100417.66
2023-03-11T15:56:22.114Z,100414.38
2023-03-11T16:00:24.489Z,100421.78
2023-03-11T16:04:26.275Z,100418.09
2023-03-11T16:08:27.836Z,100418.28
2023-03-11T16:12:29.293Z,100418.47
2023-03-11T16:16:31.143Z,100422.78
2023-03-11T16:20:37.698Z,100428.56
2023-03-11T16:24:39.173Z,100437.31
2023-03-11T16:28:41.082Z,100463.84
2023-03-11T16:32:43.317Z,100466.47
2023-03-11T16:36:44.869Z,100458.47
2023-03-11T16:40:56.718Z,100464.03
2023-03-11T16:44:58.216Z,100470.19
2023-03-11T16:48:59.634Z,100473.81
2023-03-11T16:53:01.091Z,100474.41
2023-03-11T16:57:03.018Z,100473.53
2023-03-11T17:01:04.576Z,100471.78
2023-03-11T17:05:07.743Z,100471.75
2023-03-11T17:09:09.597Z,100466.50
2023-03-11T17:13:17.040Z,100465.28
2023-03-11T17:17:20.857Z,100470.81
2023-03-11T17:21:22.444Z,100467.38
2023-03-11T17:25:24.008Z,100470.72
2023-03-11T17:29:25.775Z,100471.56
2023-03-11T17:33:27.372Z,100481.06
2023-03-11T17:37:28.892Z,100478.41
2023-03-11T17:41:30.375Z,100480.34
2023-03-11T17:45:31.782Z,100491.88
2023-03-11T17:49:33.549Z,100483.03
2023-03-11T17:53:36.968Z,100482.13
2023-03-11T17:57:45.129Z,100488.22
2023-03-11T18:01:47.225Z,100505.13
2023-03-11T18:05:56.446Z,100500.94
2023-03-11T18:09:57.930Z,100495.72
2023-03-11T18:13:59.446Z,100502.00
2023-03-11T18:18:01.186Z,100500.94
2023-03-11T18:22:02.769Z,100507.09
2023-03-11T18:26:07.514Z,100498.44
2023-03-11T18:30:11.211Z,100498.47
2023-03-11T18:34:14.119Z,100508.13
2023-03-11T18:38:16.038Z,100506.25
2023-03-11T18:42:17.621Z,100508.06
2023-03-11T18:46:19.386Z,100507.81
2023-03-11T18:50:21.330Z,100504.69
2023-03-11T18:54:22.950Z,100509.78
2023-03-11T18:58:24.439Z,100515.13
2023-03-11T19:02:26.139Z,100514.25
2023-03-11T19:06:28.785Z,100505.44
2023-03-11T19:10:30.351Z,100503.72
2023-03-11T19:14:31.781Z,100510.78
2023-03-11T19:18:33.839Z,100515.09
2023-03-11T19:22:36.098Z,100519.69
2023-03-11T19:26:46.616Z,100517.84
2023-03-11T19:30:52.541Z,100523.94
2023-03-11T19:34:53.982Z,100526.78
2023-03-11T19:38:55.444Z,100531.16
2023-03-11T19:42:59.019Z,100531.16
2023-03-11T19:47:00.475Z,100527.63
2023-03-11T19:51:08.315Z,100530.25
2023-03-11T19:55:10.196Z,100520.53
2023-03-11T19:59:12.170Z,100528.53
2023-03-11T20:03:15.001Z,100532.94
2023-03-11T20:07:16.631Z,100543.41
2023-03-11T20:11:18.200Z,100549.63
2023-03-11T20:15:19.642Z,100549.50
2023-03-11T20:19:21.315Z,100550.53
2023-03-11T20:23:22.786Z,100552.25
2023-03-11T20:27:24.257Z,100557.53
2023-03-11T20:31:27.439Z,100555.81
2023-03-11T20:35:28.874Z,100562.84
2023-03-11T20:39:30.376Z,100568.09
2023-03-11T20:43:38.498Z,100571.66
2023-03-11T20:47:40.116Z,100569.88
2023-03-11T20:51:43.671Z,100576.94
2023-03-11T20:55:45.292Z,100572.53
2023-03-11T20:59:46.873Z,100577.81
2023-03-11T21:03:48.749Z,100579.56
2023-03-11T21:07:50.428Z,100590.09
2023-03-11T21:11:51.937Z,100594.50
2023-03-11T21:15:55.190Z,100605.06
2023-03-11T21:19:57.250Z,100590.94
2023-03-11T21:23:58.889Z,100591.00
2023-03-11T21:28:00.354Z,100591.88
2023-03-11T21:32:01.816Z,100604.19
2023-03-11T21:36:03.581Z,100607.69
2023-03-11T21:40:07.446Z,100596.28
2023-03-11T21:44:09.058Z,100594.50
2023-03-11T21:48:11.284Z,100598.00
2023-03-11T21:52:12.933Z,100598.91
2023-03-11T21:56:15.561Z,100599.78
2023-03-11T22:00:17.241Z,100605.06
2023-03-11T22:04:18.955Z,100606.81
2023-03-11T22:08:20.429Z,100613.00
2023-03-11T22:12:22.196Z,100615.63
2023-03-11T22:16:24.433Z,100621.75
2023-03-11T22:20:26.166Z,100620.00
2023-03-11T22:24:27.605Z,100624.41
2023-03-11T22:28:29.252Z,100620.00
2023-03-11T22:32:30.778Z,100624.38
2023-03-11T22:36:32.335Z,100627.00
2023-03-11T22:40:35.054Z,100629.66
2023-03-11T22:44:36.611Z,100633.19
2023-03-11T22:48:38.025Z,100642.88
2023-03-11T22:52:39.488Z,100641.09
2023-03-11T22:56:41.009Z,100635.84
2023-03-11T23:00:44.111Z,100634.06
2023-03-11T23:04:45.801Z,100646.38
2023-03-11T23:08:47.562Z,100654.28
2023-03-11T23:12:49.194Z,100653.38
2023-03-11T23:16:50.666Z,100668.31
2023-03-11T23:20:52.092Z,100669.19
2023-03-11T23:24:53.597Z,100662.94
2023-03-11T23:28:55.944Z,100668.28
2023-03-11T23:32:57.862Z,100684.09
2023-03-11T23:36:59.335Z,100687.59
2023-03-11T23:41:01.270Z,100687.59
2023-03-11T23:45:03.147Z,100684.03
2023-03-11T23:49:04.617Z,100691.00
2023-03-11T23:53:06.135Z,100692.78
2023-03-11T23:57:07.738Z,100695.41
